Time;durP1;ratioP1;P1;durP2;ratioP2;P2;SDS_P1;SDS_P2;PMS_P1;PMS_P2;Temp;Humidity;BMP_temperature;BMP_pressure;BME280_temperature;BME280_humidity;BME280_pressure;Samples;Min_cycle;Max_cycle;Signal;HPM_P1;HPM_P2
2024/04/19 00:01:26;;;;;;;27.50;15.90;;;;;;;1.61;78.03;100731.60;108661;1261;138834;-63
2024/04/19 00:03:53;;;;;;;22.70;14.70;;;;;;;1.71;77.86;100731.34;108791;1260;61565;-63
2024/04/19 00:06:19;;;;;;;20.80;14.00;;;;;;;1.82;77.98;100729.53;108675;1260;138956;-65
2024/04/19 00:08:45;;;;;;;20.70;14.70;;;;;;;1.85;77.73;100723.55;108796;1260;59803;-65
2024/04/19 00:11:12;;;;;;;21.80;14.20;;;;;;;1.85;77.61;100720.42;108776;1261;60107;-64
2024/04/19 00:13:38;;;;;;;25.40;14.50;;;;;;;1.83;77.43;100718.01;108779;1260;59763;-66
2024/04/19 00:16:05;;;;;;;23.70;14.20;;;;;;;1.79;77.45;100715.02;108787;1260;60000;-65
2024/04/19 00:18:31;;;;;;;24.00;14.30;;;;;;;1.73;77.17;100704.13;108571;1261;139411;-65
2024/04/19 00:20:58;;;;;;;24.50;14.60;;;;;;;1.69;77.14;100700.09;108740;1265;59799;-65
2024/04/19 00:23:24;;;;;;;22.70;14.60;;;;;;;1.65;77.25;100692.80;108683;1260;139093;-64
2024/04/19 00:25:51;;;;;;;24.50;14.50;;;;;;;1.65;77.44;100689.33;108798;1261;60109;-64
2024/04/19 00:28:18;;;;;;;25.00;15.70;;;;;;;1.68;77.54;100687.58;108804;1260;60497;-64
2024/04/19 00:30:44;;;;;;;22.50;14.60;;;;;;;1.70;77.44;100684.41;108649;1261;139527;-64
2024/04/19 00:33:10;;;;;;;22.10;14.70;;;;;;;1.67;77.30;100685.80;108785;1260;59715;-64
2024/04/19 00:35:37;;;;;;;24.60;15.10;;;;;;;1.64;77.15;100686.96;108637;1264;138922;-64
2024/04/19 00:38:03;;;;;;;25.00;15.00;;;;;;;1.58;77.08;100685.77;108830;1261;59690;-64
2024/04/19 00:40:30;;;;;;;22.90;15.30;;;;;;;1.53;76.97;100680.63;108796;1261;60286;-64
2024/04/19 00:42:57;;;;;;;26.70;15.10;;;;;;;1.53;77.34;100674.20;108598;1261;138765;-65
2024/04/19 00:45:35;;;;;;;26.00;15.50;;;;;;;1.58;77.57;100671.41;108721;1261;65629;-64
2024/04/19 00:48:18;;;;;;;25.20;15.90;;;;;;;1.64;77.71;100667.10;108704;1260;138711;-65
2024/04/19 00:50:44;;;;;;;23.60;15.60;;;;;;;1.67;77.78;100659.63;108774;1260;59984;-65
2024/04/19 00:53:11;;;;;;;27.80;16.20;;;;;;;1.70;77.73;100652.23;108775;1261;60083;-65
2024/04/19 00:55:38;;;;;;;24.10;16.00;;;;;;;1.73;77.89;100645.15;108687;1264;138790;-65
2024/04/19 00:58:04;;;;;;;26.10;15.80;;;;;;;1.75;78.03;100639.90;108677;1260;60090;-65
2024/04/19 01:00:31;;;;;;;23.10;15.40;;;;;;;1.74;77.70;100637.44;108657;1260;139390;-66
2024/04/19 01:02:57;;;;;;;23.40;15.00;;;;;;;1.71;77.67;100634.30;108787;1260;59644;-65
2024/04/19 01:05:24;;;;;;;25.50;16.00;;;;;;;1.67;77.88;100631.27;108719;1261;138968;-65
2024/04/19 01:07:50;;;;;;;26.70;14.90;;;;;;;1.63;77.73;100626.91;108789;1261;60107;-65
2024/04/19 01:10:17;;;;;;;25.10;15.40;;;;;;;1.60;77.93;100623.81;108664;1260;66863;-65
2024/04/19 01:12:44;;;;;;;27.40;15.20;;;;;;;1.57;77.90;100623.11;108689;1260;138585;-66
2024/04/19 01:15:17;;;;;;;23.30;14.70;;;;;;;1.54;77.87;100623.82;108801;1260;63308;-65
2024/04/19 01:17:43;;;;;;;19.60;14.50;;;;;;;1.51;77.83;100622.08;108699;1260;140656;-66
2024/04/19 01:20:10;;;;;;;22.90;13.40;;;;;;;1.49;78.13;100619.20;108848;1260;74922;-66
2024/04/19 01:22:36;;;;;;;26.00;15.00;;;;;;;1.46;78.16;100620.23;108793;1260;60028;-67
2024/04/19 01:25:03;;;;;;;26.50;15.50;;;;;;;1.44;78.11;100616.28;108541;1264;139468;-66
2024/04/19 01:27:30;;;;;;;21.10;14.10;;;;;;;1.42;78.14;100614.80;108760;1261;59785;-66
2024/04/19 01:29:57;;;;;;;22.90;14.00;;;;;;;1.39;77.98;100610.96;108605;1260;139878;-66
2024/04/19 01:32:23;;;;;;;22.80;14.60;;;;;;;1.37;78.17;100608.29;108770;1260;60604;-66
2024/04/19 01:34:50;;;;;;;21.90;13.80;;;;;;;1.37;78.32;100601.16;108740;1260;60255;-67
2024/04/19 01:37:16;;;;;;;19.90;13.70;;;;;;;1.39;78.56;100599.36;108592;1260;139475;-66
2024/04/19 01:39:42;;;;;;;26.90;14.20;;;;;;;1.44;78.59;100595.85;108797;1260;59801;-66
2024/04/19 01:42:09;;;;;;;19.80;13.00;;;;;;;1.46;78.60;100593.89;108682;1261;140197;-66
2024/04/19 01:44:35;;;;;;;20.00;12.60;;;;;;;1.46;78.60;100590.80;108813;1260;59986;-67
2024/04/19 01:47:02;;;;;;;20.50;12.20;;;;;;;1.45;78.53;100590.04;108829;1260;59776;-65
2024/04/19 01:49:28;;;;;;;19.00;12.10;;;;;;;1.43;78.56;100581.10;108660;1260;139578;-66
2024/04/19 01:51:55;;;;;;;20.70;12.10;;;;;;;1.43;78.45;100586.80;108803;1260;59787;-66
2024/04/19 01:54:21;;;;;;;17.70;11.70;;;;;;;1.41;78.56;100582.73;108663;1260;139916;-66
2024/04/19 01:56:48;;;;;;;16.60;11.30;;;;;;;1.39;78.59;100578.95;108809;1260;59825;-67
2024/04/19 01:59:14;;;;;;;16.00;11.30;;;;;;;1.36;78.55;100578.45;108607;1260;139290;-66
2024/04/19 02:01:41;;;;;;;18.00;11.70;;;;;;;1.34;78.66;100579.59;108810;1260;59847;-65
2024/04/19 02:04:07;;;;;;;25.60;11.40;;;;;;;1.33;78.81;100572.96;108780;1260;59723;-65
2024/04/19 02:06:35;;;;;;;17.70;11.30;;;;;;;1.34;78.83;100566.96;108696;1260;138923;-65
2024/04/19 02:09:03;;;;;;;18.80;11.30;;;;;;;1.35;78.84;100564.43;108669;1260;75002;-65
2024/04/19 02:11:30;;;;;;;16.90;11.10;;;;;;;1.36;78.91;100559.27;108678;1261;138829;-67
2024/04/19 02:13:56;;;;;;;19.20;11.50;;;;;;;1.38;79.05;100558.00;108777;1260;59865;-65
2024/04/19 02:16:22;;;;;;;17.00;11.10;;;;;;;1.39;78.79;100560.48;108789;1260;59787;-65
2024/04/19 02:18:49;;;;;;;19.70;10.70;;;;;;;1.38;78.69;100553.15;108672;1260;139037;-65
2024/04/19 02:21:15;;;;;;;17.40;11.20;;;;;;;1.36;78.74;100546.85;108804;1260;59978;-66
2024/04/19 02:23:42;;;;;;;24.40;13.10;;;;;;;1.36;78.88;100546.86;108650;1260;138862;-65
2024/04/19 02:26:08;;;;;;;17.20;12.00;;;;;;;1.40;78.91;100544.77;108792;1260;59750;-65
2024/04/19 02:31:22;;;;;;;21.90;12.70;;;;;;;1.44;78.99;100540.73;108531;1260;228583;-65
2024/04/19 02:33:49;;;;;;;23.00;13.30;;;;;;;1.48;79.24;100543.73;108820;1260;75779;-64
2024/04/19 02:36:15;;;;;;;19.90;12.20;;;;;;;1.54;79.45;100538.20;108683;1260;138689;-65
2024/04/19 02:38:42;;;;;;;21.90;12.70;;;;;;;1.58;79.03;100533.07;108785;1260;72885;-65
2024/04/19 02:41:08;;;;;;;21.50;13.20;;;;;;;1.61;79.29;100528.54;108800;1260;60058;-65
2024/04/19 02:43:35;;;;;;;23.30;14.00;;;;;;;1.65;79.29;100524.11;108585;1260;139543;-65
2024/04/19 02:46:04;;;;;;;25.00;13.10;;;;;;;1.69;79.26;100521.56;108786;1260;59715;-66
2024/04/19 02:48:32;;;;;;;19.40;13.00;;;;;;;1.71;79.42;100519.29;108665;1260;138985;-65
2024/04/19 02:50:58;;;;;;;21.50;14.30;;;;;;;1.75;79.13;100516.73;108781;1260;71052;-64
2024/04/19 02:53:25;;;;;;;21.80;13.60;;;;;;;1.79;79.30;100512.92;108694;1260;139537;-64
2024/04/19 02:55:51;;;;;;;19.50;13.40;;;;;;;1.83;79.27;100515.45;108794;1260;59774;-64
2024/04/19 02:58:18;;;;;;;24.20;13.80;;;;;;;1.88;79.36;100510.55;108765;1260;60056;-66
2024/04/19 03:00:44;;;;;;;25.00;13.90;;;;;;;1.94;79.28;100505.48;108660;1260;139069;-66
2024/04/19 03:03:11;;;;;;;23.20;14.20;;;;;;;1.99;79.37;100504.07;108788;1260;70839;-66
2024/04/19 03:05:37;;;;;;;29.10;15.30;;;;;;;2.04;79.23;100497.75;108476;1260;139487;-65
2024/04/19 03:08:04;;;;;;;22.90;16.10;;;;;;;2.08;79.29;100496.08;108848;1260;59803;-65
2024/04/19 03:10:31;;;;;;;25.30;15.00;;;;;;;2.13;79.24;100493.40;108759;1260;75453;-63
2024/04/19 03:12:57;;;;;;;25.90;15.20;;;;;;;2.19;79.44;100488.52;108686;1260;138936;-64
2024/04/19 03:15:23;;;;;;;24.70;14.20;;;;;;;2.25;79.38;100485.39;108790;1260;59845;-64
2024/04/19 03:17:50;;;;;;;25.00;15.80;;;;;;;2.28;79.21;100480.00;108694;1260;139012;-63
2024/04/19 03:20:16;;;;;;;28.10;14.20;;;;;;;2.31;79.21;100479.14;108834;1260;59994;-64
2024/04/19 03:22:43;;;;;;;26.30;16.10;;;;;;;2.33;79.30;100481.14;108790;1260;59849;-63
2024/04/19 03:25:10;;;;;;;25.80;15.70;;;;;;;2.39;79.33;100476.76;108682;1260;138710;-63
2024/04/19 03:27:37;;;;;;;20.40;14.10;;;;;;;2.39;78.99;100475.73;108794;1260;72581;-64
2024/04/19 03:30:03;;;;;;;26.60;16.40;;;;;;;2.37;78.86;100474.25;108670;1260;139497;-63
2024/04/19 03:32:30;;;;;;;23.80;15.90;;;;;;;2.32;78.55;100472.25;108836;1260;59814;-64
2024/04/19 03:34:57;;;;;;;22.50;14.80;;;;;;;2.29;78.49;100471.89;108699;1260;59733;-64
2024/04/19 03:37:23;;;;;;;24.00;15.30;;;;;;;2.28;78.53;100477.20;108705;1260;138782;-64
2024/04/19 03:39:50;;;;;;;24.60;15.60;;;;;;;2.32;78.85;100473.64;108767;1260;60107;-64
2024/04/19 03:42:20;;;;;;;25.20;15.00;;;;;;;2.36;78.99;100468.14;108688;1260;138129;-64
2024/04/19 03:47:35;;;;;;;30.90;20.60;;;;;;;2.52;78.98;100455.28;108725;1260;140477;-63
2024/04/19 03:50:01;;;;;;;36.60;25.10;;;;;;;2.58;79.08;100451.95;108772;1260;66222;-63
2024/04/19 03:52:27;;;;;;;47.30;31.50;;;;;;;2.66;79.01;100451.84;108786;1260;71949;-64
2024/04/19 03:54:55;;;;;;;77.80;52.70;;;;;;;2.71;78.88;100450.41;108701;1260;139476;-64
2024/04/19 03:57:21;;;;;;;71.10;50.00;;;;;;;2.78;78.88;100445.38;108781;1260;60289;-63
2024/04/19 03:59:47;;;;;;;65.60;44.80;;;;;;;2.83;78.81;100442.01;108600;1262;139874;-64
2024/04/19 04:02:14;;;;;;;59.80;40.80;;;;;;;2.89;78.79;100434.15;108715;1260;60099;-63
2024/04/19 04:04:40;;;;;;;43.30;28.90;;;;;;;2.98;78.95;100435.09;108765;1260;59880;-63
2024/04/19 04:07:07;;;;;;;34.90;22.10;;;;;;;3.05;78.69;100437.91;108655;1260;138966;-63
2024/04/19 04:09:33;;;;;;;31.50;19.60;;;;;;;3.11;78.69;100438.35;108808;1260;60208;-63
2024/04/19 04:12:00;;;;;;;27.60;18.00;;;;;;;3.14;78.43;100442.48;108607;1260;139048;-64
2024/04/19 04:14:26;;;;;;;33.10;16.70;;;;;;;3.16;78.36;100444.50;108838;1260;59688;-64
2024/04/19 04:16:53;;;;;;;23.70;15.50;;;;;;;3.17;78.23;100444.54;108683;1260;59921;-64
2024/04/19 04:19:19;;;;;;;25.50;16.00;;;;;;;3.16;78.05;100443.64;108692;1260;138693;-64
2024/04/19 04:21:46;;;;;;;26.70;15.90;;;;;;;3.17;78.13;100443.16;108760;1261;59843;-64
2024/04/19 04:24:12;;;;;;;30.90;16.00;;;;;;;3.21;78.28;100437.13;108679;1260;138488;-64
2024/04/19 04:26:39;;;;;;;27.30;16.20;;;;;;;3.24;78.20;100439.88;108826;1260;60111;-64
2024/04/19 04:29:05;;;;;;;25.70;16.40;;;;;;;3.25;78.07;100434.02;108763;1260;59996;-65
2024/04/19 04:31:31;;;;;;;33.20;19.30;;;;;;;3.27;78.13;100432.24;108675;1260;138683;-65
2024/04/19 04:33:58;;;;;;;40.60;23.00;;;;;;;3.33;78.32;100427.83;108790;1260;59817;-65
2024/04/19 04:36:25;;;;;;;37.80;23.70;;;;;;;3.41;78.32;100430.13;108738;1260;139102;-65
2024/04/19 04:38:51;;;;;;;44.30;24.90;;;;;;;3.50;78.48;100432.98;108783;1260;66441;-65
2024/04/19 04:41:18;;;;;;;38.80;25.10;;;;;;;3.59;78.46;100430.11;108658;1260;139276;-64
2024/04/19 04:43:44;;;;;;;43.50;25.10;;;;;;;3.72;78.51;100426.92;108740;1260;60089;-65
2024/04/19 04:46:11;;;;;;;40.00;22.70;;;;;;;3.82;78.40;100425.10;108782;1260;59806;-64
2024/04/19 04:48:37;;;;;;;36.50;21.60;;;;;;;3.88;78.26;100421.60;108667;1260;138886;-65
2024/04/19 04:51:04;;;;;;;36.30;20.50;;;;;;;3.94;78.05;100418.90;108783;1260;64147;-65
2024/04/19 04:53:30;;;;;;;30.60;18.30;;;;;;;4.02;78.05;100416.16;108685;1260;139880;-65
2024/04/19 04:55:57;;;;;;;30.90;17.60;;;;;;;4.13;77.96;100407.79;108784;1260;59764;-64
2024/04/19 04:58:23;;;;;;;27.80;18.30;;;;;;;4.24;77.86;100404.11;108787;1260;59908;-65
2024/04/19 05:00:51;;;;;;;30.30;18.40;;;;;;;4.35;77.96;100401.29;108642;1260;138236;-65
2024/04/19 05:03:17;;;;;;;31.50;19.40;;;;;;;4.46;77.93;100401.27;108706;1260;64801;-67
2024/04/19 05:05:44;;;;;;;30.80;19.60;;;;;;;4.60;78.03;100395.82;108652;1262;138626;-65
2024/04/19 05:08:11;;;;;;;35.40;20.00;;;;;;;4.71;77.82;100394.19;108597;1260;59941;-64
2024/04/19 05:10:37;;;;;;;37.50;22.40;;;;;;;4.82;77.81;100390.33;108798;1260;60038;-64
2024/04/19 05:13:03;;;;;;;40.30;23.70;;;;;;;4.94;77.77;100391.33;108564;1260;140472;-65
2024/04/19 05:15:30;;;;;;;47.50;25.40;;;;;;;5.05;77.75;100392.14;108751;1260;59791;-65
2024/04/19 05:17:56;;;;;;;45.40;25.60;;;;;;;5.17;77.68;100390.21;108658;1260;140710;-65
2024/04/19 05:20:23;;;;;;;48.30;26.30;;;;;;;5.32;77.82;100389.55;108786;1259;59899;-66
2024/04/19 05:22:49;;;;;;;46.90;25.10;;;;;;;5.48;77.74;100389.19;108784;1260;59904;-68
2024/04/19 05:25:16;;;;;;;46.10;27.90;;;;;;;5.67;77.84;100387.66;108652;1260;139048;-68
2024/04/19 05:27:43;;;;;;;42.90;25.60;;;;;;;5.89;77.98;100385.52;108731;1261;64816;-68
2024/04/19 05:30:09;;;;;;;50.80;30.60;;;;;;;6.15;78.21;100380.95;108628;1261;139665;-66
2024/04/19 05:32:36;;;;;;;49.90;32.60;;;;;;;6.49;78.30;100377.98;108838;1260;59779;-66
2024/04/19 05:35:02;;;;;;;29.50;21.00;;;;;;;6.83;78.08;100372.55;108808;1260;60041;-66
2024/04/19 05:37:29;;;;;;;16.70;12.00;;;;;;;7.12;77.79;100366.70;108646;1260;139453;-66
2024/04/19 05:39:55;;;;;;;13.30;9.90;;;;;;;7.39;77.37;100367.73;108802;1260;67464;-67
2024/04/19 05:42:22;;;;;;;20.30;13.50;;;;;;;7.64;77.14;100362.40;108666;1260;138620;-68
2024/04/19 05:44:49;;;;;;;20.60;11.90;;;;;;;7.93;77.00;100360.98;108774;1260;60174;-68
2024/04/19 05:47:15;;;;;;;23.40;12.60;;;;;;;8.20;76.69;100361.60;108663;1260;138330;-68
2024/04/19 05:49:43;;;;;;;20.80;11.90;;;;;;;8.43;76.33;100357.70;108770;1260;59803;-68
2024/04/19 05:52:09;;;;;;;61.90;32.10;;;;;;;8.59;75.70;100357.98;108771;1260;66004;-68
2024/04/19 05:54:35;;;;;;;60.00;33.40;;;;;;;8.66;75.22;100357.80;108675;1260;138306;-68
2024/04/19 05:57:02;;;;;;;32.60;18.30;;;;;;;8.78;75.25;100354.61;108781;1260;59930;-69
2024/04/19 05:59:28;;;;;;;27.00;14.60;;;;;;;8.87;74.80;100350.84;108650;1260;138294;-68
2024/04/19 06:01:56;;;;;;;27.30;15.20;;;;;;;8.91;74.37;100354.42;108706;1260;73482;-68
2024/04/19 06:04:22;;;;;;;49.20;31.90;;;;;;;8.91;74.04;100352.34;108778;1260;66790;-67
2024/04/19 06:06:49;;;;;;;17.00;13.40;;;;;;;8.87;73.58;100351.86;108641;1260;139102;-68
2024/04/19 06:09:15;;;;;;;12.20;8.40;;;;;;;8.80;73.35;100352.55;108755;1259;59695;-68
2024/04/19 06:11:41;;;;;;;6.70;5.50;;;;;;;8.79;73.32;100355.15;108675;1260;138798;-67
2024/04/19 06:14:08;;;;;;;13.80;8.70;;;;;;;8.78;73.27;100352.88;108664;1260;60189;-68
2024/04/19 06:16:34;;;;;;;9.00;5.50;;;;;;;8.81;73.33;100352.41;108791;1260;59838;-68
2024/04/19 06:19:01;;;;;;;8.40;4.90;;;;;;;8.78;73.10;100346.56;108671;1262;138478;-68
2024/04/19 06:21:27;;;;;;;5.80;4.40;;;;;;;8.72;72.83;100346.24;108790;1259;59858;-67
2024/04/19 06:23:54;;;;;;;6.40;4.70;;;;;;;8.70;72.77;100344.45;108693;1260;138410;-67
2024/04/19 06:26:20;;;;;;;7.70;4.60;;;;;;;8.71;72.71;100343.94;108746;1260;60292;-68
2024/04/19 06:28:48;;;;;;;7.00;4.50;;;;;;;8.76;72.68;100343.54;108792;1259;60008;-67
2024/04/19 06:31:15;;;;;;;10.20;5.30;;;;;;;8.83;72.56;100341.27;108684;1259;138181;-67
2024/04/19 06:33:41;;;;;;;5.50;4.20;;;;;;;8.89;72.33;100336.52;108711;1260;59793;-68
2024/04/19 06:36:09;;;;;;;5.40;4.10;;;;;;;8.92;72.19;100332.40;108734;1259;138574;-68
2024/04/19 06:38:35;;;;;;;6.40;3.70;;;;;;;8.92;71.74;100334.16;108847;1260;74609;-68
2024/04/19 06:41:02;;;;;;;6.20;3.80;;;;;;;8.91;71.50;100334.11;108810;1260;66290;-68
2024/04/19 06:43:28;;;;;;;5.80;3.50;;;;;;;8.89;71.26;100332.86;108666;1260;138578;-68
2024/04/19 06:45:58;;;;;;;7.80;4.00;;;;;;;8.88;71.12;100333.70;108793;1260;59788;-68
2024/04/19 06:48:24;;;;;;;7.40;3.60;;;;;;;8.90;71.17;100335.70;108683;1259;137940;-67
2024/04/19 06:50:51;;;;;;;5.30;3.80;;;;;;;8.95;71.00;100333.52;108838;1259;76157;-68
2024/04/19 06:53:20;;;;;;;5.00;3.40;;;;;;;9.06;71.10;100335.02;108725;1260;138046;-68
2024/04/19 06:55:52;;;;;;;5.50;3.60;;;;;;;9.26;71.02;100330.59;108801;1260;72999;-68
2024/04/19 06:58:19;;;;;;;5.40;3.90;;;;;;;9.37;70.46;100332.61;108791;1259;59711;-68
2024/04/19 07:00:45;;;;;;;10.20;5.20;;;;;;;9.48;70.42;100327.95;108685;1260;138077;-68
2024/04/19 07:03:11;;;;;;;6.40;4.50;;;;;;;9.67;69.93;100328.70;108779;1260;60133;-69
2024/04/19 07:05:38;;;;;;;7.70;4.30;;;;;;;9.88;70.05;100322.52;108739;1261;138237;-69
2024/04/19 07:08:05;;;;;;;9.60;4.90;;;;;;;10.10;69.65;100320.14;108808;1259;60101;-68
2024/04/19 07:10:31;;;;;;;7.50;4.50;;;;;;;10.13;68.92;100322.67;108807;1260;59734;-68
2024/04/19 07:12:57;;;;;;;9.60;5.30;;;;;;;10.14;68.56;100319.16;108732;1260;138022;-68
2024/04/19 07:15:24;;;;;;;8.60;4.20;;;;;;;10.24;68.42;100316.56;108820;1260;60017;-68
2024/04/19 07:17:51;;;;;;;6.20;3.30;;;;;;;10.37;67.96;100318.41;108745;1260;138518;-68
2024/04/19 07:20:17;;;;;;;5.30;3.30;;;;;;;10.39;67.56;100314.59;108817;1259;73057;-69
2024/04/19 07:22:44;;;;;;;6.20;3.80;;;;;;;10.49;67.27;100312.16;108728;1260;60111;-68
2024/04/19 07:25:10;;;;;;;5.70;2.80;;;;;;;10.55;67.07;100307.87;108714;1260;138324;-68
2024/04/19 07:27:37;;;;;;;4.60;3.00;;;;;;;10.60;66.62;100307.26;108806;1259;59944;-68
2024/04/19 07:30:04;;;;;;;5.40;3.00;;;;;;;10.60;66.47;100302.35;108645;1260;139020;-68
2024/04/19 07:32:31;;;;;;;4.30;3.00;;;;;;;10.67;66.42;100297.20;108755;1260;73869;-68
2024/04/19 07:34:57;;;;;;;4.60;2.70;;;;;;;10.72;65.97;100295.89;108819;1259;59784;-68
2024/04/19 07:37:23;;;;;;;5.20;3.30;;;;;;;10.77;65.88;100293.16;108701;1260;138624;-68
2024/04/19 07:39:50;;;;;;;7.20;2.60;;;;;;;10.88;65.63;100289.14;108806;1260;60123;-68
2024/04/19 07:42:16;;;;;;;5.30;2.70;;;;;;;11.00;65.49;100283.34;108663;1260;139072;-68
2024/04/19 07:44:42;;;;;;;6.00;2.30;;;;;;;11.20;65.69;100284.73;108819;1259;59788;-68
2024/04/19 07:47:09;;;;;;;12.40;5.70;;;;;;;11.47;65.57;100282.10;108756;1260;60210;-68
2024/04/19 07:49:35;;;;;;;9.10;4.40;;;;;;;11.78;65.41;100280.41;108680;1259;138676;-69
2024/04/19 07:52:02;;;;;;;18.70;6.50;;;;;;;12.03;64.96;100276.02;108784;1260;59992;-68
2024/04/19 07:54:28;;;;;;;10.20;4.10;;;;;;;12.25;64.44;100273.42;108682;1260;138436;-68
2024/04/19 07:56:55;;;;;;;9.20;3.50;;;;;;;12.36;64.25;100272.65;108838;1260;59742;-68
2024/04/19 07:59:22;;;;;;;4.20;3.10;;;;;;;12.52;64.16;100269.83;108677;1259;139032;-68
2024/04/19 08:01:48;;;;;;;6.30;3.00;;;;;;;12.73;63.90;100268.42;108805;1259;59931;-68
2024/04/19 08:04:15;;;;;;;4.60;2.70;;;;;;;12.90;63.39;100262.22;108801;1260;60104;-68
2024/04/19 08:06:41;;;;;;;4.30;2.50;;;;;;;13.01;62.92;100260.02;108657;1260;138177;-68
2024/04/19 08:09:08;;;;;;;8.80;3.40;;;;;;;12.97;61.87;100254.16;108834;1259;59877;-68
2024/04/19 08:11:34;;;;;;;6.60;4.60;;;;;;;12.87;61.72;100250.41;108617;1262;138872;-68
2024/04/19 08:14:00;;;;;;;4.50;3.00;;;;;;;12.78;61.23;100249.10;108816;1259;59811;-68
2024/04/19 08:16:27;;;;;;;6.60;3.20;;;;;;;12.69;60.87;100247.96;108699;1262;59860;-68
2024/04/19 08:18:54;;;;;;;4.80;2.60;;;;;;;12.50;60.64;100243.58;108696;1260;138266;-68
2024/04/19 08:21:20;;;;;;;3.70;2.60;;;;;;;12.43;60.69;100236.12;108779;1260;72884;-68
2024/04/19 08:23:47;;;;;;;4.30;2.50;;;;;;;12.51;60.71;100240.07;108750;1260;138758;-68
2024/04/19 08:26:13;;;;;;;4.90;2.60;;;;;;;12.53;60.20;100235.67;108820;1260;59798;-68
2024/04/19 08:28:40;;;;;;;5.60;2.60;;;;;;;12.50;60.12;100232.49;108803;1260;60155;-68
2024/04/19 08:31:06;;;;;;;6.80;3.50;;;;;;;12.39;59.65;100235.21;108691;1260;138022;-68
2024/04/19 08:33:33;;;;;;;13.90;7.10;;;;;;;12.43;60.20;100229.61;108793;1260;59837;-68
2024/04/19 08:35:59;;;;;;;21.00;14.50;;;;;;;12.68;60.49;100227.36;108657;1260;138441;-68
2024/04/19 08:38:26;;;;;;;9.40;6.00;;;;;;;12.96;60.38;100223.34;108808;1259;59798;-68
2024/04/19 08:40:59;;;;;;;5.40;3.40;;;;;;;13.17;59.98;100227.52;108808;1259;74385;-68
2024/04/19 08:43:27;;;;;;;31.20;19.70;;;;;;;13.33;59.53;100220.41;108716;1260;138582;-68
2024/04/19 08:45:54;;;;;;;8.20;4.30;;;;;;;13.48;59.15;100219.09;108780;1259;73205;-69
2024/04/19 08:48:20;;;;;;;11.00;7.90;;;;;;;13.54;58.73;100218.23;108540;1259;138627;-69
2024/04/19 08:50:46;;;;;;;9.70;7.70;;;;;;;13.52;58.36;100219.11;108758;1260;59820;-68
2024/04/19 08:53:13;;;;;;;8.20;4.90;;;;;;;13.49;58.07;100219.27;108725;1260;59908;-68
2024/04/19 08:55:40;;;;;;;6.80;3.80;;;;;;;13.44;57.91;100218.00;108639;1260;60096;-68
2024/04/19 08:58:07;;;;;;;6.90;4.40;;;;;;;13.33;57.49;100215.66;108694;1260;72615;-68
2024/04/19 09:00:33;;;;;;;8.20;3.60;;;;;;;13.17;57.39;100214.14;108659;1260;138702;-69
2024/04/19 09:03:00;;;;;;;8.00;3.20;;;;;;;13.03;57.27;100213.88;108783;1262;59811;-69
2024/04/19 09:05:26;;;;;;;7.80;3.40;;;;;;;12.94;57.29;100212.06;108683;1262;140060;-69
2024/04/19 09:07:53;;;;;;;6.10;3.40;;;;;;;12.90;57.13;100208.15;108762;1260;66574;-69
2024/04/19 09:10:19;;;;;;;10.70;5.00;;;;;;;12.95;57.35;100205.02;108711;1260;59847;-69
2024/04/19 09:12:46;;;;;;;55.60;13.60;;;;;;;13.12;57.27;100203.18;108712;1260;138476;-69
2024/04/19 09:15:12;;;;;;;18.70;6.10;;;;;;;13.25;57.16;100202.73;108866;1259;59831;-69
2024/04/19 09:17:38;;;;;;;7.00;3.80;;;;;;;13.32;56.99;100201.38;108663;1260;139451;-68
2024/04/19 09:20:05;;;;;;;12.10;5.30;;;;;;;13.44;57.00;100195.10;108783;1260;60398;-68
2024/04/19 09:22:32;;;;;;;7.20;3.30;;;;;;;13.67;56.94;100188.31;108819;1259;71461;-68
2024/04/19 09:24:58;;;;;;;15.40;11.60;;;;;;;13.85;56.39;100189.23;108721;1260;138926;-68
2024/04/19 09:27:27;;;;;;;11.70;6.40;;;;;;;13.90;55.97;100182.20;108845;1259;59799;-68
2024/04/19 09:29:53;;;;;;;8.80;5.20;;;;;;;13.93;55.63;100181.33;108740;1259;138406;-68
2024/04/19 09:32:23;;;;;;;8.90;5.50;;;;;;;13.88;55.50;100174.98;108661;1259;67347;-68
2024/04/19 09:34:50;;;;;;;7.80;4.30;;;;;;;13.84;55.71;100170.90;108708;1260;70532;-68
2024/04/19 09:37:16;;;;;;;9.10;4.20;;;;;;;13.93;55.92;100171.98;108669;1260;138363;-68
2024/04/19 09:39:43;;;;;;;9.60;3.70;;;;;;;14.08;55.98;100169.89;108667;1259;59854;-68
2024/04/19 09:42:10;;;;;;;7.20;4.30;;;;;;;14.15;55.73;100169.01;108734;1260;138188;-68
2024/04/19 09:44:37;;;;;;;7.30;4.10;;;;;;;14.20;55.70;100164.78;108800;1259;66747;-69
2024/04/19 09:47:04;;;;;;;10.80;3.50;;;;;;;14.27;55.53;100160.20;108651;1260;72285;-69
2024/04/19 09:49:32;;;;;;;17.80;4.70;;;;;;;14.30;55.20;100160.20;108679;1260;138670;-69
2024/04/19 09:51:58;;;;;;;13.10;5.50;;;;;;;14.34;55.08;100155.27;108684;1260;60514;-69
2024/04/19 09:54:28;;;;;;;8.50;3.70;;;;;;;14.52;55.18;100155.97;108682;1260;138437;-69
2024/04/19 09:56:59;;;;;;;6.40;3.60;;;;;;;14.79;54.85;100148.73;108717;1260;65185;-68
2024/04/19 09:59:26;;;;;;;7.60;3.30;;;;;;;15.00;54.77;100147.60;108627;1260;138712;-69
2024/04/19 10:01:54;;;;;;;7.70;3.00;;;;;;;15.26;54.72;100144.35;108773;1260;59950;-69
2024/04/19 10:04:20;;;;;;;7.30;3.30;;;;;;;15.40;54.35;100142.16;108777;1260;61131;-69
2024/04/19 10:06:47;;;;;;;9.40;3.40;;;;;;;15.44;53.82;100145.15;108679;1260;138515;-69
2024/04/19 10:09:19;;;;;;;7.30;2.70;;;;;;;15.27;53.18;100146.81;108842;1260;66186;-69
2024/04/19 10:11:48;;;;;;;8.30;2.70;;;;;;;15.03;52.83;100147.41;108701;1260;138873;-69
2024/04/19 10:14:15;;;;;;;4.30;2.20;;;;;;;14.81;52.82;100147.13;108760;1261;59949;-69
2024/04/19 10:16:42;;;;;;;15.00;3.50;;;;;;;14.72;53.06;100155.80;108723;1260;59889;-69
2024/04/19 10:19:10;;;;;;;7.50;2.00;;;;;;;14.56;52.74;100154.39;108558;1260;138855;-69
2024/04/19 10:21:39;;;;;;;5.40;2.40;;;;;;;14.26;52.67;100156.14;108708;1260;66552;-68
2024/04/19 10:24:11;;;;;;;4.00;3.40;;;;;;;14.05;53.11;100156.46;108713;1259;138570;-69
2024/04/19 10:26:38;;;;;;;2.10;1.20;;;;;;;13.80;53.21;100155.20;108797;1259;59854;-69
2024/04/19 10:29:05;;;;;;;2.20;1.50;;;;;;;13.51;53.19;100150.17;108813;1260;60036;-69
2024/04/19 10:31:34;;;;;;;3.10;1.30;;;;;;;13.28;53.49;100153.42;108683;1259;137977;-69
2024/04/19 10:34:01;;;;;;;7.30;3.70;;;;;;;13.07;54.11;100146.80;108721;1260;66076;-69
2024/04/19 10:36:31;;;;;;;6.70;6.10;;;;;;;13.08;55.03;100138.52;108703;1259;138044;-69
2024/04/19 10:38:58;;;;;;;4.90;2.50;;;;;;;13.34;55.40;100135.83;108822;1260;59787;-69
2024/04/19 10:41:24;;;;;;;3.30;2.80;;;;;;;13.61;55.56;100129.59;108616;1260;138725;-69
2024/04/19 10:43:52;;;;;;;25.10;22.90;;;;;;;13.84;55.37;100129.45;108816;1260;76544;-69
2024/04/19 10:46:19;;;;;;;8.50;7.70;;;;;;;14.02;54.60;100130.55;108798;1260;65389;-69
2024/04/19 10:48:46;;;;;;;5.50;5.00;;;;;;;14.18;54.49;100124.56;108704;1260;139783;-69
2024/04/19 10:51:16;;;;;;;4.70;2.00;;;;;;;14.40;54.55;100121.02;108870;1259;60116;-69
2024/04/19 10:53:42;;;;;;;3.50;1.70;;;;;;;14.57;54.15;100118.02;108529;1259;139722;-69
2024/04/19 10:56:09;;;;;;;3.30;1.50;;;;;;;14.62;53.70;100115.38;108790;1260;75802;-69
2024/04/19 10:58:35;;;;;;;11.70;1.90;;;;;;;14.68;53.40;100114.48;108807;1260;65298;-69
2024/04/19 11:01:02;;;;;;;6.30;2.60;;;;;;;14.62;52.67;100111.84;108713;1260;138881;-69
2024/04/19 11:03:29;;;;;;;3.90;1.80;;;;;;;14.56;52.63;100105.30;108826;1260;59921;-69
2024/04/19 11:05:55;;;;;;;6.10;2.10;;;;;;;14.58;52.82;100101.78;108634;1259;138991;-69
2024/04/19 11:08:24;;;;;;;5.00;1.90;;;;;;;14.65;53.04;100097.71;108695;1260;75570;-69
2024/04/19 11:10:51;;;;;;;6.10;2.00;;;;;;;14.78;52.90;100096.80;108693;1260;67272;-69
2024/04/19 11:13:17;;;;;;;7.10;2.20;;;;;;;14.76;52.12;100086.55;108576;1260;138497;-69